Time;durP1;ratioP1;P1;durP2;ratioP2;P2;SDS_P1;SDS_P2;PMS_P1;PMS_P2;Temp;Humidity;BMP_temperature;BMP_pressure;BME280_temperature;BME280_humidity;BME280_pressure;Samples;Min_cycle;Max_cycle;Signal;HPM_P1;HPM_P2
2022/06/12 00:01:42;;;;;;;8.40;6.00;;;;;;;;;;8350255;28;20045;-86
2022/06/12 00:05:47;;;;;;;8.38;5.78;;;;;;;;;;8346780;28;20065;-86
2022/06/12 00:09:51;;;;;;;11.68;6.15;;;;;;;;;;8345192;28;20041;-93
2022/06/12 00:13:56;;;;;;;8.85;5.68;;;;;;;;;;8341616;28;20049;-93
2022/06/12 00:17:59;;;;;;;7.97;5.65;;;;;;;;;;8332545;28;20481;-89
2022/06/12 00:22:02;;;;;;;10.82;5.32;;;;;;;;;;8358849;28;20048;-85
2022/06/12 00:26:06;;;;;;;7.45;5.53;;;;;;;;;;8357824;28;20044;-85
2022/06/12 00:30:11;;;;;;;8.18;5.55;;;;;;;;;;8345877;28;20481;-92
2022/06/12 00:34:16;;;;;;;8.95;5.97;;;;;;;;;;8344126;28;20469;-93
2022/06/12 00:38:19;;;;;;;10.15;6.13;;;;;;;;;;8331912;28;20046;-86
2022/06/12 00:42:26;;;;;;;9.65;5.75;;;;;;;;;;8333998;28;20049;-92
2022/06/12 00:46:46;;;;;;;9.23;5.30;;;;;;;;;;8330369;28;20037;-87
2022/06/12 00:50:53;;;;;;;7.50;5.80;;;;;;;;;;8330181;28;20041;-89
2022/06/12 00:55:01;;;;;;;8.02;6.05;;;;;;;;;;8340874;28;20057;-89
2022/06/12 00:59:11;;;;;;;11.07;6.95;;;;;;;;;;8363867;28;20576;-93
2022/06/12 01:03:13;;;;;;;11.65;6.00;;;;;;;;;;8378204;28;20421;-92
2022/06/12 01:07:18;;;;;;;8.40;5.55;;;;;;;;;;8352599;28;20048;-93
2022/06/12 01:11:23;;;;;;;11.90;5.65;;;;;;;;;;8344028;28;20056;-91
2022/06/12 01:15:32;;;;;;;7.28;5.45;;;;;;;;;;8386977;28;20044;-92
2022/06/12 01:19:37;;;;;;;12.55;6.13;;;;;;;;;;8353207;28;20403;-87
2022/06/12 01:23:58;;;;;;;8.85;5.95;;;;;;;;;;8368163;28;20056;-87
2022/06/12 01:28:32;;;;;;;15.10;6.07;;;;;;;;;;8374224;28;20044;-85
2022/06/12 01:32:41;;;;;;;7.50;5.25;;;;;;;;;;8345069;28;20486;-85
2022/06/12 01:36:49;;;;;;;6.78;5.30;;;;;;;;;;8353434;28;20044;-85
2022/06/12 01:40:58;;;;;;;8.15;5.30;;;;;;;;;;8352810;28;20063;-90
2022/06/12 01:45:11;;;;;;;14.30;5.78;;;;;;;;;;8364909;28;20055;-85
2022/06/12 01:49:18;;;;;;;7.22;5.22;;;;;;;;;;8341820;28;20045;-88
2022/06/12 01:53:31;;;;;;;7.63;4.80;;;;;;;;;;8376152;28;20064;-91
2022/06/12 01:57:39;;;;;;;11.38;6.00;;;;;;;;;;8373315;28;20045;-93
2022/06/12 02:01:52;;;;;;;6.75;5.13;;;;;;;;;;8375450;28;20098;-94
2022/06/12 02:06:00;;;;;;;10.15;6.05;;;;;;;;;;8356755;28;20041;-86
2022/06/12 02:10:16;;;;;;;8.07;5.68;;;;;;;;;;8368924;28;20044;-85
2022/06/12 02:14:24;;;;;;;9.18;5.28;;;;;;;;;;8346133;28;20451;-86
2022/06/12 02:18:33;;;;;;;9.35;5.65;;;;;;;;;;8342479;28;20041;-88
2022/06/12 02:22:40;;;;;;;11.43;5.93;;;;;;;;;;8345209;28;20067;-86
2022/06/12 02:26:49;;;;;;;9.27;5.63;;;;;;;;;;8385646;28;20404;-91
2022/06/12 02:30:57;;;;;;;8.88;6.05;;;;;;;;;;8357529;28;20033;-85
2022/06/12 02:35:04;;;;;;;6.90;5.68;;;;;;;;;;8353156;28;20044;-85
2022/06/12 02:39:15;;;;;;;6.95;5.63;;;;;;;;;;8360016;28;20049;-92
2022/06/12 02:43:21;;;;;;;13.40;5.90;;;;;;;;;;8375211;28;20041;-85
2022/06/12 02:47:27;;;;;;;8.88;6.00;;;;;;;;;;8365755;28;20484;-84
2022/06/12 02:51:37;;;;;;;9.35;5.30;;;;;;;;;;8357450;28;20045;-83
2022/06/12 02:55:45;;;;;;;9.43;5.97;;;;;;;;;;8379499;28;20053;-92
2022/06/12 03:00:00;;;;;;;8.32;5.60;;;;;;;;;;8381893;28;20037;-92
2022/06/12 03:04:10;;;;;;;9.32;5.63;;;;;;;;;;8342005;28;20045;-84
2022/06/12 03:08:18;;;;;;;8.85;6.68;;;;;;;;;;8355623;28;20037;-87
2022/06/12 03:12:20;;;;;;;8.25;5.75;;;;;;;;;;8380367;28;20048;-84
2022/06/12 03:16:25;;;;;;;14.32;6.65;;;;;;;;;;8344470;28;20482;-89
2022/06/12 03:20:34;;;;;;;17.48;7.43;;;;;;;;;;8357140;28;20054;-91
2022/06/12 03:24:53;;;;;;;58.08;51.92;;;;;;;;;;8359128;28;20507;-92
2022/06/12 03:29:04;;;;;;;13.82;10.55;;;;;;;;;;8351606;28;20465;-92
2022/06/12 03:33:13;;;;;;;11.18;8.55;;;;;;;;;;8343395;28;20487;-85
2022/06/12 03:37:22;;;;;;;11.95;7.63;;;;;;;;;;8337566;28;20052;-84
2022/06/12 03:41:32;;;;;;;10.13;7.95;;;;;;;;;;8359470;28;20048;-93
2022/06/12 03:45:42;;;;;;;10.82;7.80;;;;;;;;;;8380491;28;20067;-85
2022/06/12 03:49:49;;;;;;;16.73;12.25;;;;;;;;;;8356846;28;20045;-86
2022/06/12 03:53:58;;;;;;;18.95;13.50;;;;;;;;;;8377789;28;20061;-86
2022/06/12 03:58:03;;;;;;;11.48;8.85;;;;;;;;;;8353856;28;20046;-89
2022/06/12 04:02:11;;;;;;;11.35;7.78;;;;;;;;;;8355028;28;20049;-86
2022/06/12 04:06:18;;;;;;;12.65;8.02;;;;;;;;;;8334574;28;20044;-91
2022/06/12 04:10:25;;;;;;;12.43;9.07;;;;;;;;;;8353393;28;20051;-87
2022/06/12 04:14:33;;;;;;;15.10;11.10;;;;;;;;;;8338287;28;20455;-90
2022/06/12 04:18:35;;;;;;;31.35;20.65;;;;;;;;;;8348975;28;20045;-93
2022/06/12 04:22:48;;;;;;;21.38;13.15;;;;;;;;;;8371700;28;20041;-87
2022/06/12 04:26:55;;;;;;;9.60;6.97;;;;;;;;;;8368119;28;20098;-94
2022/06/12 04:31:02;;;;;;;19.80;12.68;;;;;;;;;;8371583;28;20040;-94
2022/06/12 04:35:19;;;;;;;16.03;9.87;;;;;;;;;;8370239;28;20440;-95
2022/06/12 04:39:30;;;;;;;10.75;8.73;;;;;;;;;;8389343;28;20053;-93
2022/06/12 04:43:44;;;;;;;19.48;13.15;;;;;;;;;;8368743;28;20044;-86
2022/06/12 04:48:18;;;;;;;20.30;13.65;;;;;;;;;;8377101;28;20041;-96
2022/06/12 04:52:22;;;;;;;16.02;8.82;;;;;;;;;;8378126;28;20121;-96
2022/06/12 04:56:27;;;;;;;10.55;8.50;;;;;;;;;;8359079;28;20061;-93
2022/06/12 05:00:30;;;;;;;17.15;8.95;;;;;;;;;;8384554;28;20045;-95
2022/06/12 05:04:35;;;;;;;10.10;7.85;;;;;;;;;;8351637;28;20200;-92
2022/06/12 05:08:37;;;;;;;12.57;8.70;;;;;;;;;;8341728;28;20060;-88
2022/06/12 05:12:40;;;;;;;19.30;9.23;;;;;;;;;;8360974;28;20046;-91
2022/06/12 05:16:45;;;;;;;16.27;10.38;;;;;;;;;;8361156;28;20045;-90
2022/06/12 05:20:51;;;;;;;17.02;9.00;;;;;;;;;;8371671;28;20049;-88
2022/06/12 05:24:54;;;;;;;14.48;9.10;;;;;;;;;;8393002;28;20163;-86
2022/06/12 05:28:57;;;;;;;11.90;8.60;;;;;;;;;;8373959;28;20049;-95
2022/06/12 05:33:02;;;;;;;13.07;9.10;;;;;;;;;;8357549;28;20481;-90
2022/06/12 05:37:07;;;;;;;11.05;8.30;;;;;;;;;;8357472;28;20045;-91
2022/06/12 05:41:10;;;;;;;9.88;7.85;;;;;;;;;;8347209;28;20105;-96
2022/06/12 05:45:20;;;;;;;11.60;7.75;;;;;;;;;;8375563;28;20068;-93
2022/06/12 05:49:28;;;;;;;11.05;8.40;;;;;;;;;;8336798;28;20052;-91
2022/06/12 05:53:36;;;;;;;9.32;7.25;;;;;;;;;;8341230;28;20132;-96
2022/06/12 05:58:09;;;;;;;10.38;7.07;;;;;;;;;;8387633;28;20060;-89
2022/06/12 06:06:57;;;;;;;10.57;7.28;;;;;;;;;;8381291;28;20045;-89
2022/06/12 06:11:34;;;;;;;7.43;5.68;;;;;;;;;;8344428;28;20512;-88
2022/06/12 06:15:40;;;;;;;8.18;4.55;;;;;;;;;;8354404;28;20118;-96
2022/06/12 06:19:43;;;;;;;6.03;3.60;;;;;;;;;;8364859;28;20041;-89
2022/06/12 06:23:45;;;;;;;8.48;4.20;;;;;;;;;;8315842;28;21507;-87
2022/06/12 06:27:56;;;;;;;6.65;3.40;;;;;;;;;;8356110;28;20049;-85
2022/06/12 06:32:11;;;;;;;5.50;3.25;;;;;;;;;;8359240;28;20049;-87
2022/06/12 06:36:19;;;;;;;5.38;3.42;;;;;;;;;;8360612;28;20492;-88
2022/06/12 06:40:31;;;;;;;5.72;3.38;;;;;;;;;;8347066;28;20394;-84
2022/06/12 06:49:04;;;;;;;8.20;3.47;;;;;;;;;;8344034;28;20045;-89
2022/06/12 06:53:09;;;;;;;6.65;3.45;;;;;;;;;;8355652;28;20527;-89
2022/06/12 06:57:14;;;;;;;6.60;3.15;;;;;;;;;;8362621;28;20048;-92
2022/06/12 07:01:25;;;;;;;4.10;2.60;;;;;;;;;;8353976;28;20064;-93
2022/06/12 07:05:32;;;;;;;6.05;2.47;;;;;;;;;;8362273;28;20081;-90
2022/06/12 07:09:35;;;;;;;6.03;3.50;;;;;;;;;;8346554;28;20483;-93
2022/06/12 07:13:38;;;;;;;5.85;2.40;;;;;;;;;;8360341;28;20048;-94
2022/06/12 07:17:42;;;;;;;4.45;2.50;;;;;;;;;;8348752;28;20045;-95
2022/06/12 07:21:46;;;;;;;4.63;2.60;;;;;;;;;;8349278;28;20056;-92
2022/06/12 07:26:16;;;;;;;2.85;2.20;;;;;;;;;;8352586;28;20127;-86
2022/06/12 07:30:25;;;;;;;6.47;2.20;;;;;;;;;;8378343;28;20045;-96
2022/06/12 07:34:30;;;;;;;6.30;2.40;;;;;;;;;;8354745;28;20049;-91
2022/06/12 07:43:10;;;;;;;6.75;2.60;;;;;;;;;;8348726;28;20045;-86
2022/06/12 07:47:16;;;;;;;6.97;2.30;;;;;;;;;;8358881;28;20046;-90
2022/06/12 07:51:22;;;;;;;3.65;2.10;;;;;;;;;;8358926;28;20045;-86
2022/06/12 07:55:50;;;;;;;4.53;2.30;;;;;;;;;;8374345;28;20062;-86
2022/06/12 08:00:08;;;;;;;3.72;2.13;;;;;;;;;;8321740;28;20081;-89
2022/06/12 08:04:11;;;;;;;3.30;1.75;;;;;;;;;;8353659;28;20041;-86
2022/06/12 08:08:14;;;;;;;2.88;1.80;;;;;;;;;;8356848;28;20050;-92
2022/06/12 08:12:19;;;;;;;3.95;1.95;;;;;;;;;;8356249;28;20045;-85
2022/06/12 08:16:23;;;;;;;3.42;1.80;;;;;;;;;;8359870;28;20041;-91
2022/06/12 08:20:28;;;;;;;4.32;1.90;;;;;;;;;;8339288;28;20068;-90
2022/06/12 08:24:31;;;;;;;7.72;2.58;;;;;;;;;;8373123;28;20048;-92
2022/06/12 08:28:41;;;;;;;4.10;1.80;;;;;;;;;;8373856;28;20040;-85
2022/06/12 08:32:58;;;;;;;7.18;1.92;;;;;;;;;;8348350;28;20040;-91
2022/06/12 08:37:12;;;;;;;2.90;1.90;;;;;;;;;;8345275;28;20052;-90
2022/06/12 08:41:27;;;;;;;5.50;1.80;;;;;;;;;;8356393;28;20192;-89
2022/06/12 08:45:40;;;;;;;4.13;1.92;;;;;;;;;;8355571;28;20168;-89
2022/06/12 08:49:52;;;;;;;4.43;2.03;;;;;;;;;;8353061;28;20412;-90
2022/06/12 08:54:09;;;;;;;2.97;1.85;;;;;;;;;;8333540;28;20128;-88
2022/06/12 08:58:37;;;;;;;5.15;1.83;;;;;;;;;;8344835;28;20068;-85
2022/06/12 09:02:46;;;;;;;5.13;1.80;;;;;;;;;;8343545;28;20045;-91
2022/06/12 09:06:56;;;;;;;5.95;2.10;;;;;;;;;;8356522;28;20045;-87
2022/06/12 09:11:06;;;;;;;3.20;1.77;;;;;;;;;;8368057;28;20045;-88
2022/06/12 09:15:24;;;;;;;2.88;1.60;;;;;;;;;;8339738;28;20041;-87
2022/06/12 09:19:51;;;;;;;4.53;1.80;;;;;;;;;;8353449;28;20567;-88
2022/06/12 09:25:13;;;;;;;4.07;1.73;;;;;;;;;;8363331;28;20075;-86
2022/06/12 09:29:35;;;;;;;4.28;1.75;;;;;;;;;;8364086;28;20300;-87
2022/06/12 09:34:00;;;;;;;5.28;1.90;;;;;;;;;;8377408;28;20125;-85
2022/06/12 09:43:50;;;;;;;4.72;2.55;;;;;;;;;;8271029;28;20133;-84
2022/06/12 09:48:28;;;;;;;4.20;1.85;;;;;;;;;;8273143;28;20055;-90
2022/06/12 09:53:06;;;;;;;7.25;2.30;;;;;;;;;;8269977;28;20097;-89
2022/06/12 09:57:49;;;;;;;5.30;2.50;;;;;;;;;;8109543;29;20642;-85
2022/06/12 10:02:05;;;;;;;3.40;1.90;;;;;;;;;;8131609;29;20044;-85
2022/06/12 10:06:25;;;;;;;4.07;2.22;;;;;;;;;;8135499;29;20068;-85
2022/06/12 10:10:39;;;;;;;3.78;2.00;;;;;;;;;;8128015;29;20048;-89
2022/06/12 10:24:40;;;;;;;3.25;2.03;;;;;;;;;;8143703;28;20064;-87
2022/06/12 10:29:08;;;;;;;7.15;2.70;;;;;;;;;;8261517;28;20135;-88
2022/06/12 10:34:04;;;;;;;6.55;2.10;;;;;;;;;;8268418;28;20068;-87
2022/06/12 10:38:38;;;;;;;4.57;2.47;;;;;;;;;;8174080;29;20111;-94
2022/06/12 10:42:51;;;;;;;7.10;2.42;;;;;;;;;;8163579;29;20063;-92
2022/06/12 10:46:54;;;;;;;4.70;2.20;;;;;;;;;;8174890;29;20123;-92
2022/06/12 10:50:59;;;;;;;5.25;2.15;;;;;;;;;;8184356;29;20131;-86
2022/06/12 10:55:04;;;;;;;4.10;2.00;;;;;;;;;;8188235;29;20423;-93
2022/06/12 11:10:18;;;;;;;4.43;2.40;;;;;;;;;;8141259;29;20045;-92
2022/06/12 11:25:13;;;;;;;4.57;2.33;;;;;;;;;;8163693;28;20077;-87
2022/06/12 11:45:01;;;;;;;4.28;2.47;;;;;;;;;;8370628;28;20052;-93
2022/06/12 11:55:35;;;;;;;3.75;2.50;;;;;;;;;;8293599;28;20078;-92
2022/06/12 12:00:16;;;;;;;3.85;2.45;;;;;;;;;;8314322;28;20105;-87
2022/06/12 12:05:06;;;;;;;5.07;2.70;;;;;;;;;;8298694;28;20061;-87
2022/06/12 12:09:53;;;;;;;3.67;2.40;;;;;;;;;;8323044;28;20477;-92
2022/06/12 12:14:47;;;;;;;4.15;2.40;;;;;;;;;;8324078;28;20054;-92
2022/06/12 12:23:52;;;;;;;4.83;2.50;;;;;;;;;;8552674;27;1966887;-90
2022/06/12 12:27:57;;;;;;;2.60;2.30;;;;;;;;;;8555684;27;20040;-88
2022/06/12 12:32:14;;;;;;;3.20;2.50;;;;;;;;;;8564340;27;20067;-86
2022/06/12 12:45:37;;;;;;;6.22;2.30;;;;;;;;;;8564572;27;20180;-94
2022/06/12 12:55:00;;;;;;;5.05;2.47;;;;;;;;;;8450987;28;20043;-88
2022/06/12 13:15:42;;;;;;;9.10;2.72;;;;;;;;;;8347053;28;20045;-89
2022/06/12 13:20:34;;;;;;;9.40;2.70;;;;;;;;;;8273841;28;20054;-89
2022/06/12 13:24:49;;;;;;;3.28;2.53;;;;;;;;;;8362515;28;20090;-88
2022/06/12 13:29:05;;;;;;;3.10;2.30;;;;;;;;;;8375434;28;20108;-90
2022/06/12 13:38:10;;;;;;;3.60;2.30;;;;;;;;;;8355871;28;20059;-94
2022/06/12 13:42:41;;;;;;;4.40;2.33;;;;;;;;;;8335553;28;20068;-94
2022/06/12 13:47:38;;;;;;;6.22;2.70;;;;;;;;;;8350375;28;20511;-91
2022/06/12 13:57:38;;;;;;;6.47;3.00;;;;;;;;;;8354449;28;20057;-94
2022/06/12 14:08:21;;;;;;;3.97;2.80;;;;;;;;;;8066053;29;20044;-95
2022/06/12 14:17:03;;;;;;;4.18;2.90;;;;;;;;;;8107828;29;20060;-88
2022/06/12 14:21:20;;;;;;;7.60;2.78;;;;;;;;;;8120357;29;20077;-88
2022/06/12 14:25:27;;;;;;;3.95;2.85;;;;;;;;;;8155093;29;20056;-92
2022/06/12 14:29:45;;;;;;;5.70;3.13;;;;;;;;;;8201532;28;20155;-91
2022/06/12 14:39:06;;;;;;;4.57;3.47;;;;;;;;;;8304149;28;20085;-88
2022/06/12 14:43:19;;;;;;;6.30;3.17;;;;;;;;;;8271018;28;20061;-92
2022/06/12 14:52:07;;;;;;;4.63;3.03;;;;;;;;;;8254382;28;20058;-87
2022/06/12 15:00:53;;;;;;;5.35;3.72;;;;;;;;;;8335532;28;20521;-88
2022/06/12 15:05:07;;;;;;;6.05;3.10;;;;;;;;;;8264516;28;20064;-88
2022/06/12 15:09:14;;;;;;;6.55;3.47;;;;;;;;;;8357564;28;20164;-88
2022/06/12 15:13:21;;;;;;;5.88;3.75;;;;;;;;;;8355392;28;20059;-88
2022/06/12 15:17:35;;;;;;;8.90;5.55;;;;;;;;;;8379408;28;20049;-88
2022/06/12 15:21:46;;;;;;;8.10;4.13;;;;;;;;;;8414397;27;20065;-87
2022/06/12 15:30:24;;;;;;;8.60;3.60;;;;;;;;;;8523291;27;20050;-89
2022/06/12 15:34:31;;;;;;;7.18;3.10;;;;;;;;;;8514754;27;20074;-85
2022/06/12 15:38:34;;;;;;;5.18;3.45;;;;;;;;;;8519848;27;20091;-84
2022/06/12 15:42:44;;;;;;;5.43;3.42;;;;;;;;;;8545131;27;20042;-90
2022/06/12 15:46:53;;;;;;;4.13;3.20;;;;;;;;;;8490216;27;20209;-85
2022/06/12 15:51:15;;;;;;;6.00;3.35;;;;;;;;;;8503528;27;20090;-85
2022/06/12 15:55:22;;;;;;;5.00;2.72;;;;;;;;;;8538768;27;20049;-85
2022/06/12 15:59:25;;;;;;;5.07;3.10;;;;;;;;;;8543055;27;20454;-84
2022/06/12 16:03:29;;;;;;;5.30;3.33;;;;;;;;;;8533669;27;20070;-86
2022/06/12 16:07:34;;;;;;;5.95;3.30;;;;;;;;;;8534732;27;20101;-84
2022/06/12 16:11:40;;;;;;;5.88;3.45;;;;;;;;;;8530710;27;20034;-85
2022/06/12 16:15:47;;;;;;;5.90;3.35;;;;;;;;;;8534511;27;20053;-85
2022/06/12 16:19:51;;;;;;;4.53;3.08;;;;;;;;;;8542372;27;20046;-85
2022/06/12 16:24:02;;;;;;;5.13;3.40;;;;;;;;;;8553050;27;20062;-87
2022/06/12 16:28:12;;;;;;;5.28;3.38;;;;;;;;;;8556491;27;20068;-87
2022/06/12 16:32:21;;;;;;;7.03;3.30;;;;;;;;;;8543070;27;20038;-86
2022/06/12 16:36:24;;;;;;;6.50;3.38;;;;;;;;;;8493529;27;20055;-87
2022/06/12 16:45:03;;;;;;;6.25;4.20;;;;;;;;;;8481581;28;20089;-86
2022/06/12 16:49:05;;;;;;;6.47;4.07;;;;;;;;;;8484632;28;20056;-85
2022/06/12 16:53:22;;;;;;;8.57;4.50;;;;;;;;;;8451858;28;20051;-85
2022/06/12 16:57:49;;;;;;;7.22;4.80;;;;;;;;;;8433270;28;20055;-85
2022/06/12 17:01:55;;;;;;;6.43;4.80;;;;;;;;;;8474157;28;20051;-85
2022/06/12 17:20:52;;;;;;;5.80;4.18;;;;;;;;;;8335199;28;20046;-87
2022/06/12 17:25:09;;;;;;;7.23;4.37;;;;;;;;;;8286573;28;20060;-86
2022/06/12 17:29:26;;;;;;;11.85;4.28;;;;;;;;;;8346993;28;20296;-84
2022/06/12 17:34:14;;;;;;;6.70;4.47;;;;;;;;;;8332265;28;20058;-85
2022/06/12 17:38:33;;;;;;;8.75;5.78;;;;;;;;;;8331530;28;20132;-85
2022/06/12 17:47:14;;;;;;;8.20;4.68;;;;;;;;;;8245958;28;20094;-85
2022/06/12 18:00:20;;;;;;;8.98;4.78;;;;;;;;;;8302590;28;20054;-84
2022/06/12 18:04:25;;;;;;;;;;;;;;;;;;8328607;28;20081;-86
2022/06/12 18:08:42;;;;;;;9.80;5.13;;;;;;;;;;8318460;28;19936;-85
2022/06/12 18:12:46;;;;;;;6.85;5.22;;;;;;;;;;8421262;28;20044;-86
2022/06/12 18:21:09;;;;;;;8.30;5.33;;;;;;;;;;8401312;28;20045;-92
2022/06/12 18:25:14;;;;;;;9.45;5.40;;;;;;;;;;8380291;28;20056;-94
2022/06/12 18:29:19;;;;;;;15.35;5.68;;;;;;;;;;8397518;28;20056;-93
2022/06/12 18:33:23;;;;;;;10.82;5.93;;;;;;;;;;8396691;28;20151;-88
2022/06/12 18:37:27;;;;;;;9.65;5.50;;;;;;;;;;8397280;28;20057;-93
2022/06/12 18:41:32;;;;;;;9.15;5.70;;;;;;;;;;8395731;28;20048;-93
2022/06/12 18:45:36;;;;;;;9.68;7.07;;;;;;;;;;8388205;28;20041;-93
2022/06/12 18:49:39;;;;;;;8.48;6.18;;;;;;;;;;8425955;27;20170;-92
2022/06/12 18:53:50;;;;;;;9.18;6.70;;;;;;;;;;8529918;27;20035;-86
2022/06/12 18:58:05;;;;;;;8.25;7.05;;;;;;;;;;8524655;27;20039;-85
2022/06/12 19:07:58;;;;;;;7.10;6.40;;;;;;;;;;8470204;27;20050;-91
2022/06/12 19:12:08;;;;;;;9.05;7.00;;;;;;;;;;8500213;27;20047;-94
2022/06/12 19:16:14;;;;;;;11.77;7.75;;;;;;;;;;8521958;27;20035;-93
2022/06/12 19:20:19;;;;;;;10.10;7.38;;;;;;;;;;8525464;27;20042;-90
2022/06/12 19:24:24;;;;;;;9.82;7.50;;;;;;;;;;8517068;27;20054;-93
2022/06/12 19:28:30;;;;;;;14.50;7.70;;;;;;;;;;8524178;27;20047;-91
2022/06/12 19:32:36;;;;;;;15.75;8.60;;;;;;;;;;8511500;27;20053;-89
2022/06/12 19:36:40;;;;;;;17.73;13.80;;;;;;;;;;8533009;27;20049;-91
2022/06/12 19:40:43;;;;;;;19.92;13.23;;;;;;;;;;8533480;27;20086;-89
2022/06/12 19:44:46;;;;;;;11.38;9.88;;;;;;;;;;8533000;27;20046;-93
2022/06/12 19:48:51;;;;;;;17.20;9.45;;;;;;;;;;8533329;27;20035;-93
2022/06/12 19:52:54;;;;;;;11.38;9.02;;;;;;;;;;8533149;27;20058;-93
2022/06/12 19:56:57;;;;;;;10.32;8.75;;;;;;;;;;8533335;27;20043;-90
2022/06/12 20:01:04;;;;;;;11.38;9.02;;;;;;;;;;8532669;27;20090;-96
2022/06/12 20:09:29;;;;;;;11.98;9.15;;;;;;;;;;8532738;27;20043;-93
2022/06/12 20:13:32;;;;;;;11.75;8.88;;;;;;;;;;8532580;27;20371;-93
2022/06/12 20:17:35;;;;;;;12.10;9.57;;;;;;;;;;8532226;27;20486;-91
2022/06/12 20:21:39;;;;;;;10.80;9.15;;;;;;;;;;8532199;27;20052;-92
2022/06/12 20:25:43;;;;;;;11.23;9.15;;;;;;;;;;8532237;27;20046;-93
2022/06/12 20:29:46;;;;;;;13.98;10.25;;;;;;;;;;8532431;27;20481;-93
2022/06/12 20:33:49;;;;;;;11.05;9.48;;;;;;;;;;8532167;27;20502;-92
2022/06/12 20:37:54;;;;;;;12.25;9.57;;;;;;;;;;8531874;27;20039;-93
2022/06/12 20:41:57;;;;;;;11.88;10.38;;;;;;;;;;8532333;27;20039;-92
2022/06/12 20:46:00;;;;;;;12.40;9.85;;;;;;;;;;8538838;27;20094;-90
2022/06/12 20:50:03;;;;;;;13.75;9.75;;;;;;;;;;8538739;27;20362;-92
2022/06/12 20:54:08;;;;;;;13.20;10.38;;;;;;;;;;8538683;27;20043;-92
2022/06/12 20:58:11;;;;;;;10.43;9.30;;;;;;;;;;8538374;27;20512;-91
2022/06/12 21:02:13;;;;;;;14.52;9.90;;;;;;;;;;8538308;27;20062;-92
2022/06/12 21:06:16;;;;;;;14.18;10.65;;;;;;;;;;8537984;27;20478;-93
2022/06/12 21:10:20;;;;;;;12.75;10.75;;;;;;;;;;8538181;27;20054;-93
2022/06/12 21:14:24;;;;;;;12.98;10.60;;;;;;;;;;8537957;27;20069;-90
2022/06/12 21:18:27;;;;;;;17.65;11.05;;;;;;;;;;8537706;27;20046;-89
2022/06/12 21:22:30;;;;;;;13.35;11.02;;;;;;;;;;8537407;27;20054;-90
2022/06/12 21:26:35;;;;;;;13.88;11.07;;;;;;;;;;8537310;27;20066;-90
2022/06/12 21:30:38;;;;;;;13.30;11.00;;;;;;;;;;8522641;27;20091;-93
2022/06/12 21:34:41;;;;;;;13.00;10.20;;;;;;;;;;8537043;27;20126;-92
2022/06/12 21:38:44;;;;;;;14.20;10.75;;;;;;;;;;8536743;27;20058;-91
2022/06/12 21:42:48;;;;;;;12.93;10.68;;;;;;;;;;8536768;27;20091;-91
2022/06/12 21:46:52;;;;;;;12.10;10.77;;;;;;;;;;8537182;27;20043;-92
2022/06/12 21:50:55;;;;;;;13.15;11.35;;;;;;;;;;8536394;27;20058;-90
2022/06/12 21:54:57;;;;;;;14.13;11.60;;;;;;;;;;8536060;27;20126;-92
2022/06/12 21:59:01;;;;;;;15.15;11.48;;;;;;;;;;8536315;27;20137;-88
2022/06/12 22:03:04;;;;;;;12.35;11.00;;;;;;;;;;8521789;27;20043;-91
2022/06/12 22:07:08;;;;;;;13.27;10.68;;;;;;;;;;8535917;27;20446;-88
2022/06/12 22:11:12;;;;;;;14.52;11.70;;;;;;;;;;8536138;27;20383;-92
2022/06/12 22:15:20;;;;;;;14.77;10.75;;;;;;;;;;8535698;27;20084;-91
2022/06/12 22:19:23;;;;;;;22.55;11.45;;;;;;;;;;8535601;27;20042;-92
2022/06/12 22:23:25;;;;;;;15.13;10.85;;;;;;;;;;8535262;27;20046;-90
2022/06/12 22:27:28;;;;;;;15.15;12.40;;;;;;;;;;8535500;27;20053;-91
2022/06/12 22:31:32;;;;;;;21.17;15.80;;;;;;;;;;8535301;27;20459;-90
2022/06/12 22:35:35;;;;;;;20.15;15.48;;;;;;;;;;8534977;27;20043;-91
2022/06/12 22:39:38;;;;;;;16.27;13.20;;;;;;;;;;8535453;27;20098;-88
2022/06/12 22:43:40;;;;;;;17.63;12.68;;;;;;;;;;8534919;27;20050;-91
2022/06/12 22:47:44;;;;;;;16.17;13.13;;;;;;;;;;8535013;27;20469;-90
2022/06/12 22:51:47;;;;;;;18.92;15.55;;;;;;;;;;8534656;27;20046;-92
2022/06/12 22:55:49;;;;;;;19.30;14.18;;;;;;;;;;8534404;27;20098;-90
2022/06/12 22:59:52;;;;;;;17.52;14.20;;;;;;;;;;8534226;27;20042;-91
2022/06/12 23:03:56;;;;;;;15.95;13.75;;;;;;;;;;8534123;27;20047;-91
2022/06/12 23:07:59;;;;;;;18.25;12.43;;;;;;;;;;8530396;27;20395;-88
2022/06/12 23:12:01;;;;;;;13.18;11.77;;;;;;;;;;8520519;27;20047;-88
2022/06/12 23:16:05;;;;;;;14.05;11.68;;;;;;;;;;8518952;27;20122;-87
2022/06/12 23:20:10;;;;;;;15.15;11.65;;;;;;;;;;8519803;27;20038;-91
2022/06/12 23:24:13;;;;;;;16.33;13.20;;;;;;;;;;8533442;27;20629;-89
2022/06/12 23:28:16;;;;;;;17.48;13.20;;;;;;;;;;8518076;27;20130;-88
2022/06/12 23:32:19;;;;;;;27.25;19.52;;;;;;;;;;8506245;27;20167;-91
2022/06/12 23:36:23;;;;;;;23.55;16.33;;;;;;;;;;8505264;27;20039;-91
2022/06/12 23:40:26;;;;;;;28.35;15.27;;;;;;;;;;8530629;27;20052;-88
2022/06/12 23:44:29;;;;;;;14.55;12.40;;;;;;;;;;8506509;27;20498;-89
2022/06/12 23:48:32;;;;;;;16.00;12.48;;;;;;;;;;8532942;27;20046;-91
2022/06/12 23:52:36;;;;;;;18.23;14.20;;;;;;;;;;8532656;27;20399;-89
2022/06/12 23:56:39;;;;;;;15.88;14.02;;;;;;;;;;8532760;27;20050;-91
